< < Back
Terminal Aerodrome Forecast


Current Version              Previous Versions:   1  2  3  4  5  6  7  8  9  

Terminal Aerodrome Forecast

871
FTUS44 KBMX 232320
TAFBHM
TAF
KBHM 232320Z 2400/2424 VRB04KT P6SM FEW250=

Latest METAR

692
SAUS70 KWBC 241500 RRM
MTRBHM
METAR KBHM 241453Z VRB03KT 10SM BKN250 26/14 A3017 RMK AO2 SLP208 6////
T02610139 51013 $


USA.gov is the U.S. government's official web portal to all federal, state and local government web resources and services.